sensor_id;sensor_type;location;lat;lon;timestamp;temperature;humidity
14884;DHT22;7534;50.762;7.000;2024-02-26T00:01:41;6.10;82.90
14884;DHT22;7534;50.762;7.000;2024-02-26T00:04:09;6.00;83.30
14884;DHT22;7534;50.762;7.000;2024-02-26T00:06:35;6.00;83.30
14884;DHT22;7534;50.762;7.000;2024-02-26T00:09:02;6.00;84.00
14884;DHT22;7534;50.762;7.000;2024-02-26T00:11:31;6.00;84.60
14884;DHT22;7534;50.762;7.000;2024-02-26T00:13:56;6.00;85.20
14884;DHT22;7534;50.762;7.000;2024-02-26T00:16:23;6.00;84.80
14884;DHT22;7534;50.762;7.000;2024-02-26T00:18:49;6.00;84.80
14884;DHT22;7534;50.762;7.000;2024-02-26T00:21:15;6.00;85.00
14884;DHT22;7534;50.762;7.000;2024-02-26T00:23:41;6.00;85.40
14884;DHT22;7534;50.762;7.000;2024-02-26T00:26:06;6.00;85.60
14884;DHT22;7534;50.762;7.000;2024-02-26T00:28:33;6.10;85.00
14884;DHT22;7534;50.762;7.000;2024-02-26T00:30:59;6.10;84.10
14884;DHT22;7534;50.762;7.000;2024-02-26T00:33:25;6.20;84.30
14884;DHT22;7534;50.762;7.000;2024-02-26T00:35:50;6.20;84.00
14884;DHT22;7534;50.762;7.000;2024-02-26T00:38:16;6.30;83.70
14884;DHT22;7534;50.762;7.000;2024-02-26T00:40:42;6.40;83.20
14884;DHT22;7534;50.762;7.000;2024-02-26T00:43:07;6.30;84.10
14884;DHT22;7534;50.762;7.000;2024-02-26T00:45:33;6.20;84.60
14884;DHT22;7534;50.762;7.000;2024-02-26T00:47:59;6.20;85.20
14884;DHT22;7534;50.762;7.000;2024-02-26T00:50:36;6.10;85.80
14884;DHT22;7534;50.762;7.000;2024-02-26T00:53:02;6.10;86.10
14884;DHT22;7534;50.762;7.000;2024-02-26T00:55:28;6.10;86.10
14884;DHT22;7534;50.762;7.000;2024-02-26T00:57:54;6.00;86.70
14884;DHT22;7534;50.762;7.000;2024-02-26T01:00:20;6.00;87.10
14884;DHT22;7534;50.762;7.000;2024-02-26T01:02:46;5.90;87.70
14884;DHT22;7534;50.762;7.000;2024-02-26T01:05:13;5.90;87.90
14884;DHT22;7534;50.762;7.000;2024-02-26T01:07:39;5.80;88.40
14884;DHT22;7534;50.762;7.000;2024-02-26T01:10:06;5.80;88.50
14884;DHT22;7534;50.762;7.000;2024-02-26T01:12:33;5.80;88.70
14884;DHT22;7534;50.762;7.000;2024-02-26T01:15:00;5.80;89.20
14884;DHT22;7534;50.762;7.000;2024-02-26T01:17:29;5.80;89.80
14884;DHT22;7534;50.762;7.000;2024-02-26T01:19:54;5.70;89.80
14884;DHT22;7534;50.762;7.000;2024-02-26T01:22:20;5.70;90.00
14884;DHT22;7534;50.762;7.000;2024-02-26T01:24:46;5.60;90.50
14884;DHT22;7534;50.762;7.000;2024-02-26T01:27:12;5.70;90.40
14884;DHT22;7534;50.762;7.000;2024-02-26T01:29:39;5.70;90.40
14884;DHT22;7534;50.762;7.000;2024-02-26T01:32:05;5.70;90.70
14884;DHT22;7534;50.762;7.000;2024-02-26T01:34:31;5.70;90.80
14884;DHT22;7534;50.762;7.000;2024-02-26T01:36:57;5.70;91.00
14884;DHT22;7534;50.762;7.000;2024-02-26T01:39:23;5.70;90.90
14884;DHT22;7534;50.762;7.000;2024-02-26T01:41:49;5.70;91.20
14884;DHT22;7534;50.762;7.000;2024-02-26T01:44:14;5.70;90.70
14884;DHT22;7534;50.762;7.000;2024-02-26T01:46:40;5.70;90.90
14884;DHT22;7534;50.762;7.000;2024-02-26T01:49:08;5.70;91.00
14884;DHT22;7534;50.762;7.000;2024-02-26T01:51:35;5.60;91.30
14884;DHT22;7534;50.762;7.000;2024-02-26T01:54:02;5.60;91.60
14884;DHT22;7534;50.762;7.000;2024-02-26T01:56:29;5.60;92.00
14884;DHT22;7534;50.762;7.000;2024-02-26T01:58:58;5.60;92.10
14884;DHT22;7534;50.762;7.000;2024-02-26T02:01:29;5.60;92.20
14884;DHT22;7534;50.762;7.000;2024-02-26T02:03:59;5.60;92.10
14884;DHT22;7534;50.762;7.000;2024-02-26T02:06:25;5.60;92.30
14884;DHT22;7534;50.762;7.000;2024-02-26T02:08:54;5.60;92.40
14884;DHT22;7534;50.762;7.000;2024-02-26T02:11:20;5.60;92.70
14884;DHT22;7534;50.762;7.000;2024-02-26T02:13:45;5.60;92.60
14884;DHT22;7534;50.762;7.000;2024-02-26T02:16:13;5.60;92.40
14884;DHT22;7534;50.762;7.000;2024-02-26T02:18:39;5.60;92.20
14884;DHT22;7534;50.762;7.000;2024-02-26T02:21:04;5.60;92.50
14884;DHT22;7534;50.762;7.000;2024-02-26T02:23:30;5.50;92.80
14884;DHT22;7534;50.762;7.000;2024-02-26T02:25:57;5.60;93.10
14884;DHT22;7534;50.762;7.000;2024-02-26T02:28:25;5.60;92.80
14884;DHT22;7534;50.762;7.000;2024-02-26T02:30:51;5.50;93.20
14884;DHT22;7534;50.762;7.000;2024-02-26T02:33:17;5.60;93.40
14884;DHT22;7534;50.762;7.000;2024-02-26T02:35:43;5.60;93.50
14884;DHT22;7534;50.762;7.000;2024-02-26T02:38:09;5.60;93.30
14884;DHT22;7534;50.762;7.000;2024-02-26T02:40:35;5.50;93.50
14884;DHT22;7534;50.762;7.000;2024-02-26T02:43:00;5.60;93.30
14884;DHT22;7534;50.762;7.000;2024-02-26T02:45:30;5.60;92.60
14884;DHT22;7534;50.762;7.000;2024-02-26T02:47:56;5.60;92.70
14884;DHT22;7534;50.762;7.000;2024-02-26T02:50:21;5.60;92.80
14884;DHT22;7534;50.762;7.000;2024-02-26T02:52:47;5.60;93.20
14884;DHT22;7534;50.762;7.000;2024-02-26T02:55:15;5.60;93.50
14884;DHT22;7534;50.762;7.000;2024-02-26T02:57:41;5.50;93.60
14884;DHT22;7534;50.762;7.000;2024-02-26T03:00:09;5.50;93.80
14884;DHT22;7534;50.762;7.000;2024-02-26T03:02:35;5.50;93.90
14884;DHT22;7534;50.762;7.000;2024-02-26T03:05:02;5.50;94.00
14884;DHT22;7534;50.762;7.000;2024-02-26T03:07:28;5.40;94.30
14884;DHT22;7534;50.762;7.000;2024-02-26T03:09:54;5.50;94.90
14884;DHT22;7534;50.762;7.000;2024-02-26T03:12:20;5.40;95.00
14884;DHT22;7534;50.762;7.000;2024-02-26T03:14:46;5.40;95.60
14884;DHT22;7534;50.762;7.000;2024-02-26T03:17:11;5.50;95.30
14884;DHT22;7534;50.762;7.000;2024-02-26T03:19:37;5.50;95.00
14884;DHT22;7534;50.762;7.000;2024-02-26T03:22:03;5.60;94.40
14884;DHT22;7534;50.762;7.000;2024-02-26T03:24:29;5.60;93.70
14884;DHT22;7534;50.762;7.000;2024-02-26T03:26:54;5.50;94.00
14884;DHT22;7534;50.762;7.000;2024-02-26T03:29:20;5.50;94.10
14884;DHT22;7534;50.762;7.000;2024-02-26T03:31:46;5.60;94.10
14884;DHT22;7534;50.762;7.000;2024-02-26T03:34:11;5.60;94.10
14884;DHT22;7534;50.762;7.000;2024-02-26T03:36:39;5.60;94.30
14884;DHT22;7534;50.762;7.000;2024-02-26T03:39:04;5.60;94.50
14884;DHT22;7534;50.762;7.000;2024-02-26T03:41:33;5.60;94.50
14884;DHT22;7534;50.762;7.000;2024-02-26T03:43:59;5.60;94.50
14884;DHT22;7534;50.762;7.000;2024-02-26T03:46:25;5.50;94.90
14884;DHT22;7534;50.762;7.000;2024-02-26T03:48:50;5.50;95.00
14884;DHT22;7534;50.762;7.000;2024-02-26T03:51:16;5.50;95.20
14884;DHT22;7534;50.762;7.000;2024-02-26T03:53:42;5.50;95.40
14884;DHT22;7534;50.762;7.000;2024-02-26T03:56:09;5.40;95.70
14884;DHT22;7534;50.762;7.000;2024-02-26T03:58:36;5.50;96.20
14884;DHT22;7534;50.762;7.000;2024-02-26T04:01:02;5.40;96.30
14884;DHT22;7534;50.762;7.000;2024-02-26T04:03:28;5.50;96.50
14884;DHT22;7534;50.762;7.000;2024-02-26T04:05:54;5.40;96.20
14884;DHT22;7534;50.762;7.000;2024-02-26T04:08:19;5.40;96.40
14884;DHT22;7534;50.762;7.000;2024-02-26T04:10:45;5.40;96.70
14884;DHT22;7534;50.762;7.000;2024-02-26T04:13:11;5.40;96.90
14884;DHT22;7534;50.762;7.000;2024-02-26T04:15:37;5.40;97.00
14884;DHT22;7534;50.762;7.000;2024-02-26T04:18:02;5.40;97.30
14884;DHT22;7534;50.762;7.000;2024-02-26T04:20:28;5.40;97.70
14884;DHT22;7534;50.762;7.000;2024-02-26T04:22:54;5.40;98.00
14884;DHT22;7534;50.762;7.000;2024-02-26T04:25:20;5.40;98.10
14884;DHT22;7534;50.762;7.000;2024-02-26T04:27:47;5.40;98.10
14884;DHT22;7534;50.762;7.000;2024-02-26T04:30:13;5.50;97.90
14884;DHT22;7534;50.762;7.000;2024-02-26T04:32:38;5.50;97.90
14884;DHT22;7534;50.762;7.000;2024-02-26T04:35:04;5.50;98.10
14884;DHT22;7534;50.762;7.000;2024-02-26T04:37:30;5.50;98.00
14884;DHT22;7534;50.762;7.000;2024-02-26T04:40:00;5.50;97.80
14884;DHT22;7534;50.762;7.000;2024-02-26T04:42:28;5.60;97.50
14884;DHT22;7534;50.762;7.000;2024-02-26T04:44:55;5.60;97.30
14884;DHT22;7534;50.762;7.000;2024-02-26T04:47:20;5.60;97.50
14884;DHT22;7534;50.762;7.000;2024-02-26T04:49:49;5.50;97.90
14884;DHT22;7534;50.762;7.000;2024-02-26T04:52:15;5.50;98.00
14884;DHT22;7534;50.762;7.000;2024-02-26T04:54:40;5.50;97.90
14884;DHT22;7534;50.762;7.000;2024-02-26T04:57:06;5.60;97.80
14884;DHT22;7534;50.762;7.000;2024-02-26T04:59:32;5.60;97.50
14884;DHT22;7534;50.762;7.000;2024-02-26T05:01:58;5.60;97.30
14884;DHT22;7534;50.762;7.000;2024-02-26T05:04:24;5.60;97.30
14884;DHT22;7534;50.762;7.000;2024-02-26T05:06:50;5.50;97.50
14884;DHT22;7534;50.762;7.000;2024-02-26T05:09:16;5.50;97.60
14884;DHT22;7534;50.762;7.000;2024-02-26T05:11:42;5.50;97.60
14884;DHT22;7534;50.762;7.000;2024-02-26T05:14:08;5.50;97.70
14884;DHT22;7534;50.762;7.000;2024-02-26T05:16:33;5.50;97.90
14884;DHT22;7534;50.762;7.000;2024-02-26T05:18:59;5.50;97.80
14884;DHT22;7534;50.762;7.000;2024-02-26T05:21:25;5.60;97.80
14884;DHT22;7534;50.762;7.000;2024-02-26T05:23:50;5.50;97.80
14884;DHT22;7534;50.762;7.000;2024-02-26T05:26:23;5.50;97.70
14884;DHT22;7534;50.762;7.000;2024-02-26T05:28:49;5.60;97.80
14884;DHT22;7534;50.762;7.000;2024-02-26T05:31:16;5.60;97.60
14884;DHT22;7534;50.762;7.000;2024-02-26T05:33:42;5.60;97.60
14884;DHT22;7534;50.762;7.000;2024-02-26T05:36:08;5.60;97.70
14884;DHT22;7534;50.762;7.000;2024-02-26T05:38:33;5.50;98.00
14884;DHT22;7534;50.762;7.000;2024-02-26T05:40:59;5.60;97.90
14884;DHT22;7534;50.762;7.000;2024-02-26T05:43:28;5.60;97.70
14884;DHT22;7534;50.762;7.000;2024-02-26T05:45:54;5.50;97.50
14884;DHT22;7534;50.762;7.000;2024-02-26T05:48:21;5.50;97.60
14884;DHT22;7534;50.762;7.000;2024-02-26T05:50:47;5.50;97.90
14884;DHT22;7534;50.762;7.000;2024-02-26T05:53:13;5.50;97.70
14884;DHT22;7534;50.762;7.000;2024-02-26T05:55:38;5.50;97.70
14884;DHT22;7534;50.762;7.000;2024-02-26T05:58:05;5.50;97.60
14884;DHT22;7534;50.762;7.000;2024-02-26T06:00:30;5.60;97.60
14884;DHT22;7534;50.762;7.000;2024-02-26T06:02:56;5.50;97.80
14884;DHT22;7534;50.762;7.000;2024-02-26T06:05:23;5.50;97.80
14884;DHT22;7534;50.762;7.000;2024-02-26T06:07:48;5.50;97.80
14884;DHT22;7534;50.762;7.000;2024-02-26T06:10:14;5.50;97.90
14884;DHT22;7534;50.762;7.000;2024-02-26T06:12:40;5.50;98.00
14884;DHT22;7534;50.762;7.000;2024-02-26T06:15:06;5.50;98.00
14884;DHT22;7534;50.762;7.000;2024-02-26T06:17:32;5.50;97.80
14884;DHT22;7534;50.762;7.000;2024-02-26T06:19:59;5.50;98.00
14884;DHT22;7534;50.762;7.000;2024-02-26T06:22:25;5.50;98.10
14884;DHT22;7534;50.762;7.000;2024-02-26T06:24:51;5.40;98.40
14884;DHT22;7534;50.762;7.000;2024-02-26T06:27:17;5.40;98.60
14884;DHT22;7534;50.762;7.000;2024-02-26T06:29:42;5.50;98.80
14884;DHT22;7534;50.762;7.000;2024-02-26T06:32:08;5.50;98.60
14884;DHT22;7534;50.762;7.000;2024-02-26T06:34:34;5.50;98.20
14884;DHT22;7534;50.762;7.000;2024-02-26T06:37:00;5.50;98.20
14884;DHT22;7534;50.762;7.000;2024-02-26T06:39:25;5.50;98.30
14884;DHT22;7534;50.762;7.000;2024-02-26T06:41:51;5.50;98.20
14884;DHT22;7534;50.762;7.000;2024-02-26T06:44:23;5.50;98.20
14884;DHT22;7534;50.762;7.000;2024-02-26T06:46:50;5.50;98.30
14884;DHT22;7534;50.762;7.000;2024-02-26T06:49:15;5.50;98.20
14884;DHT22;7534;50.762;7.000;2024-02-26T06:51:41;5.40;98.20
14884;DHT22;7534;50.762;7.000;2024-02-26T06:54:07;5.40;98.40
14884;DHT22;7534;50.762;7.000;2024-02-26T06:56:32;5.40;98.40
14884;DHT22;7534;50.762;7.000;2024-02-26T06:58:58;5.40;98.40
14884;DHT22;7534;50.762;7.000;2024-02-26T07:01:24;5.40;98.40
14884;DHT22;7534;50.762;7.000;2024-02-26T07:03:49;5.50;98.40
14884;DHT22;7534;50.762;7.000;2024-02-26T07:06:15;5.40;98.30
14884;DHT22;7534;50.762;7.000;2024-02-26T07:08:41;5.40;98.60
14884;DHT22;7534;50.762;7.000;2024-02-26T07:11:10;5.40;98.50
14884;DHT22;7534;50.762;7.000;2024-02-26T07:13:36;5.40;98.30
14884;DHT22;7534;50.762;7.000;2024-02-26T07:16:02;5.50;98.30
14884;DHT22;7534;50.762;7.000;2024-02-26T07:18:28;5.50;98.20
14884;DHT22;7534;50.762;7.000;2024-02-26T07:20:53;5.40;98.20
14884;DHT22;7534;50.762;7.000;2024-02-26T07:23:19;5.50;98.50
14884;DHT22;7534;50.762;7.000;2024-02-26T07:25:45;5.50;98.30
14884;DHT22;7534;50.762;7.000;2024-02-26T07:28:12;5.50;98.40
14884;DHT22;7534;50.762;7.000;2024-02-26T07:30:38;5.50;98.40
14884;DHT22;7534;50.762;7.000;2024-02-26T07:33:03;5.50;98.50
14884;DHT22;7534;50.762;7.000;2024-02-26T07:35:29;5.60;98.40
14884;DHT22;7534;50.762;7.000;2024-02-26T07:37:55;5.50;98.20
14884;DHT22;7534;50.762;7.000;2024-02-26T07:40:20;5.50;98.50
14884;DHT22;7534;50.762;7.000;2024-02-26T07:42:46;5.50;98.30
14884;DHT22;7534;50.762;7.000;2024-02-26T07:45:12;5.50;98.10
14884;DHT22;7534;50.762;7.000;2024-02-26T07:47:37;5.50;98.20
14884;DHT22;7534;50.762;7.000;2024-02-26T07:50:07;5.50;98.50
14884;DHT22;7534;50.762;7.000;2024-02-26T07:52:33;5.60;98.50
14884;DHT22;7534;50.762;7.000;2024-02-26T07:54:59;5.60;98.20
14884;DHT22;7534;50.762;7.000;2024-02-26T07:57:25;5.60;98.20
14884;DHT22;7534;50.762;7.000;2024-02-26T07:59:50;5.50;98.20
14884;DHT22;7534;50.762;7.000;2024-02-26T08:02:16;5.60;98.00
14884;DHT22;7534;50.762;7.000;2024-02-26T08:04:42;5.50;97.90
14884;DHT22;7534;50.762;7.000;2024-02-26T08:07:08;5.50;98.00
14884;DHT22;7534;50.762;7.000;2024-02-26T08:09:34;5.50;98.10
14884;DHT22;7534;50.762;7.000;2024-02-26T08:11:59;5.50;98.30
14884;DHT22;7534;50.762;7.000;2024-02-26T08:14:25;5.60;98.20
14884;DHT22;7534;50.762;7.000;2024-02-26T08:16:51;5.50;98.00
14884;DHT22;7534;50.762;7.000;2024-02-26T08:19:17;5.50;97.80
14884;DHT22;7534;50.762;7.000;2024-02-26T08:21:43;5.50;97.90
14884;DHT22;7534;50.762;7.000;2024-02-26T08:24:08;5.50;98.10
14884;DHT22;7534;50.762;7.000;2024-02-26T08:26:35;5.50;98.10
14884;DHT22;7534;50.762;7.000;2024-02-26T08:29:00;5.50;98.20
14884;DHT22;7534;50.762;7.000;2024-02-26T08:31:26;5.50;98.10
14884;DHT22;7534;50.762;7.000;2024-02-26T08:33:53;5.50;98.10
14884;DHT22;7534;50.762;7.000;2024-02-26T08:36:18;5.50;98.10
14884;DHT22;7534;50.762;7.000;2024-02-26T08:38:44;5.40;98.30
14884;DHT22;7534;50.762;7.000;2024-02-26T08:41:10;5.50;98.20
14884;DHT22;7534;50.762;7.000;2024-02-26T08:43:35;5.50;98.20
14884;DHT22;7534;50.762;7.000;2024-02-26T08:46:01;5.50;98.30
14884;DHT22;7534;50.762;7.000;2024-02-26T08:48:28;5.50;98.40
14884;DHT22;7534;50.762;7.000;2024-02-26T08:50:53;5.50;98.50
14884;DHT22;7534;50.762;7.000;2024-02-26T08:53:21;5.50;98.30
14884;DHT22;7534;50.762;7.000;2024-02-26T08:55:46;5.50;98.30
14884;DHT22;7534;50.762;7.000;2024-02-26T08:58:12;5.50;98.50
14884;DHT22;7534;50.762;7.000;2024-02-26T09:00:38;5.50;98.40
14884;DHT22;7534;50.762;7.000;2024-02-26T09:03:04;5.50;98.10
14884;DHT22;7534;50.762;7.000;2024-02-26T09:05:30;5.50;98.30
14884;DHT22;7534;50.762;7.000;2024-02-26T09:07:55;5.50;98.50
14884;DHT22;7534;50.762;7.000;2024-02-26T09:10:21;5.50;98.60
14884;DHT22;7534;50.762;7.000;2024-02-26T09:12:47;5.50;98.50
14884;DHT22;7534;50.762;7.000;2024-02-26T09:15:14;5.50;98.40
14884;DHT22;7534;50.762;7.000;2024-02-26T09:17:39;5.40;98.50
14884;DHT22;7534;50.762;7.000;2024-02-26T09:20:05;5.40;98.60
14884;DHT22;7534;50.762;7.000;2024-02-26T09:22:34;5.50;98.60
14884;DHT22;7534;50.762;7.000;2024-02-26T09:25:00;5.50;98.40
14884;DHT22;7534;50.762;7.000;2024-02-26T09:27:25;5.50;98.10
14884;DHT22;7534;50.762;7.000;2024-02-26T09:29:51;5.50;98.20
14884;DHT22;7534;50.762;7.000;2024-02-26T09:32:17;5.50;98.00
14884;DHT22;7534;50.762;7.000;2024-02-26T09:34:43;5.50;98.00
14884;DHT22;7534;50.762;7.000;2024-02-26T09:37:08;5.60;97.80
14884;DHT22;7534;50.762;7.000;2024-02-26T09:39:34;5.60;97.80
14884;DHT22;7534;50.762;7.000;2024-02-26T09:42:04;5.60;97.80
14884;DHT22;7534;50.762;7.000;2024-02-26T09:44:31;5.70;97.90
14884;DHT22;7534;50.762;7.000;2024-02-26T09:47:00;5.70;97.70
14884;DHT22;7534;50.762;7.000;2024-02-26T09:49:27;5.70;97.70
14884;DHT22;7534;50.762;7.000;2024-02-26T09:51:54;5.70;97.30
14884;DHT22;7534;50.762;7.000;2024-02-26T09:54:21;5.70;97.10
14884;DHT22;7534;50.762;7.000;2024-02-26T09:56:50;5.80;97.20
14884;DHT22;7534;50.762;7.000;2024-02-26T09:59:17;5.80;96.80
14884;DHT22;7534;50.762;7.000;2024-02-26T10:01:44;5.80;97.10
14884;DHT22;7534;50.762;7.000;2024-02-26T10:04:12;5.90;96.80
14884;DHT22;7534;50.762;7.000;2024-02-26T10:06:39;5.90;97.00
14884;DHT22;7534;50.762;7.000;2024-02-26T10:09:05;6.00;97.10
14884;DHT22;7534;50.762;7.000;2024-02-26T10:11:35;6.00;96.90
14884;DHT22;7534;50.762;7.000;2024-02-26T10:14:02;6.20;97.10
14884;DHT22;7534;50.762;7.000;2024-02-26T10:16:28;6.40;96.70
14884;DHT22;7534;50.762;7.000;2024-02-26T10:18:54;6.60;95.40
14884;DHT22;7534;50.762;7.000;2024-02-26T10:21:20;6.80;95.10
14884;DHT22;7534;50.762;7.000;2024-02-26T10:23:47;7.00;94.20
14884;DHT22;7534;50.762;7.000;2024-02-26T10:26:14;7.00;93.60
14884;DHT22;7534;50.762;7.000;2024-02-26T10:28:44;7.10;92.80
14884;DHT22;7534;50.762;7.000;2024-02-26T10:31:11;7.10;92.60
14884;DHT22;7534;50.762;7.000;2024-02-26T10:33:38;7.10;92.70
14884;DHT22;7534;50.762;7.000;2024-02-26T10:36:05;7.30;93.30
14884;DHT22;7534;50.762;7.000;2024-02-26T10:38:32;7.40;93.00
14884;DHT22;7534;50.762;7.000;2024-02-26T10:40:58;7.40;91.50
14884;DHT22;7534;50.762;7.000;2024-02-26T10:43:27;7.50;92.30
14884;DHT22;7534;50.762;7.000;2024-02-26T10:45:55;7.50;92.00
14884;DHT22;7534;50.762;7.000;2024-02-26T10:48:21;7.50;92.10
14884;DHT22;7534;50.762;7.000;2024-02-26T10:50:47;7.50;91.20
14884;DHT22;7534;50.762;7.000;2024-02-26T10:53:17;7.30;91.30
14884;DHT22;7534;50.762;7.000;2024-02-26T10:55:47;7.30;91.80
14884;DHT22;7534;50.762;7.000;2024-02-26T10:58:14;7.20;91.80
14884;DHT22;7534;50.762;7.000;2024-02-26T11:00:43;7.20;91.90
14884;DHT22;7534;50.762;7.000;2024-02-26T11:03:09;7.20;92.50
14884;DHT22;7534;50.762;7.000;2024-02-26T11:05:36;7.20;92.20
14884;DHT22;7534;50.762;7.000;2024-02-26T11:08:04;7.10;91.70
14884;DHT22;7534;50.762;7.000;2024-02-26T11:10:31;7.10;92.40
14884;DHT22;7534;50.762;7.000;2024-02-26T11:12:59;7.00;92.00
14884;DHT22;7534;50.762;7.000;2024-02-26T11:15:27;7.00;92.00
14884;DHT22;7534;50.762;7.000;2024-02-26T11:17:55;7.00;92.00
14884;DHT22;7534;50.762;7.000;2024-02-26T11:20:23;7.00;92.50
14884;DHT22;7534;50.762;7.000;2024-02-26T11:22:49;7.00;92.60
14884;DHT22;7534;50.762;7.000;2024-02-26T11:25:15;6.90;93.20
14884;DHT22;7534;50.762;7.000;2024-02-26T11:27:50;6.80;93.60
14884;DHT22;7534;50.762;7.000;2024-02-26T11:30:18;6.80;93.40
14884;DHT22;7534;50.762;7.000;2024-02-26T11:32:48;6.70;93.80
14884;DHT22;7534;50.762;7.000;2024-02-26T11:35:14;6.70;94.50
14884;DHT22;7534;50.762;7.000;2024-02-26T11:37:54;6.70;94.70
14884;DHT22;7534;50.762;7.000;2024-02-26T11:40:25;6.70;94.40
14884;DHT22;7534;50.762;7.000;2024-02-26T11:42:51;6.70;95.00
14884;DHT22;7534;50.762;7.000;2024-02-26T11:48:12;6.80;94.70
14884;DHT22;7534;50.762;7.000;2024-02-26T11:50:40;6.70;94.90
14884;DHT22;7534;50.762;7.000;2024-02-26T11:53:20;6.70;95.50
14884;DHT22;7534;50.762;7.000;2024-02-26T11:56:12;6.70;95.30
14884;DHT22;7534;50.762;7.000;2024-02-26T11:59:03;6.90;95.90
14884;DHT22;7534;50.762;7.000;2024-02-26T12:01:48;6.90;95.50
14884;DHT22;7534;50.762;7.000;2024-02-26T12:04:19;7.00;95.50
14884;DHT22;7534;50.762;7.000;2024-02-26T12:06:51;7.10;95.40
14884;DHT22;7534;50.762;7.000;2024-02-26T12:09:39;7.20;95.50
14884;DHT22;7534;50.762;7.000;2024-02-26T12:12:13;7.30;95.70
14884;DHT22;7534;50.762;7.000;2024-02-26T12:14:52;7.30;94.20
14884;DHT22;7534;50.762;7.000;2024-02-26T12:17:25;7.20;94.10
14884;DHT22;7534;50.762;7.000;2024-02-26T12:19:52;7.20;94.40
14884;DHT22;7534;50.762;7.000;2024-02-26T12:22:21;7.20;94.90
14884;DHT22;7534;50.762;7.000;2024-02-26T12:24:47;7.20;94.80
14884;DHT22;7534;50.762;7.000;2024-02-26T12:27:12;7.10;94.50
14884;DHT22;7534;50.762;7.000;2024-02-26T12:29:39;7.20;94.90
14884;DHT22;7534;50.762;7.000;2024-02-26T12:32:05;7.10;94.20
14884;DHT22;7534;50.762;7.000;2024-02-26T12:34:31;7.10;95.00
14884;DHT22;7534;50.762;7.000;2024-02-26T12:36:57;7.20;95.60
14884;DHT22;7534;50.762;7.000;2024-02-26T12:39:23;7.30;94.90
14884;DHT22;7534;50.762;7.000;2024-02-26T12:41:49;7.30;94.80
14884;DHT22;7534;50.762;7.000;2024-02-26T12:44:24;7.30;95.10
14884;DHT22;7534;50.762;7.000;2024-02-26T12:46:51;7.40;95.10
14884;DHT22;7534;50.762;7.000;2024-02-26T12:49:17;7.30;94.10
14884;DHT22;7534;50.762;7.000;2024-02-26T12:51:44;7.30;94.50
14884;DHT22;7534;50.762;7.000;2024-02-26T12:54:11;7.30;94.40
14884;DHT22;7534;50.762;7.000;2024-02-26T12:56:37;7.30;95.10
14884;DHT22;7534;50.762;7.000;2024-02-26T12:59:03;7.40;95.30
14884;DHT22;7534;50.762;7.000;2024-02-26T13:01:29;7.30;95.20
14884;DHT22;7534;50.762;7.000;2024-02-26T13:03:56;7.30;94.70
14884;DHT22;7534;50.762;7.000;2024-02-26T13:06:22;7.30;94.90
14884;DHT22;7534;50.762;7.000;2024-02-26T13:08:48;7.20;95.00
14884;DHT22;7534;50.762;7.000;2024-02-26T13:11:14;7.20;95.00
14884;DHT22;7534;50.762;7.000;2024-02-26T13:13:40;7.20;96.00
14884;DHT22;7534;50.762;7.000;2024-02-26T13:16:10;7.30;96.10
14884;DHT22;7534;50.762;7.000;2024-02-26T13:18:36;7.10;95.70
14884;DHT22;7534;50.762;7.000;2024-02-26T13:21:15;7.00;96.50
14884;DHT22;7534;50.762;7.000;2024-02-26T13:23:43;7.10;96.90
14884;DHT22;7534;50.762;7.000;2024-02-26T13:26:14;7.00;96.40
14884;DHT22;7534;50.762;7.000;2024-02-26T13:28:40;7.00;97.00
14884;DHT22;7534;50.762;7.000;2024-02-26T13:31:06;7.00;97.50
14884;DHT22;7534;50.762;7.000;2024-02-26T13:33:33;7.00;97.80
14884;DHT22;7534;50.762;7.000;2024-02-26T13:35:59;7.00;98.00
14884;DHT22;7534;50.762;7.000;2024-02-26T13:38:27;7.00;98.10
14884;DHT22;7534;50.762;7.000;2024-02-26T13:40:54;7.10;98.20
14884;DHT22;7534;50.762;7.000;2024-02-26T13:43:20;7.10;98.10
14884;DHT22;7534;50.762;7.000;2024-02-26T13:45:46;7.10;98.00
14884;DHT22;7534;50.762;7.000;2024-02-26T13:48:13;7.20;98.20
14884;DHT22;7534;50.762;7.000;2024-02-26T13:50:40;7.20;98.60
14884;DHT22;7534;50.762;7.000;2024-02-26T13:53:09;7.30;98.30
14884;DHT22;7534;50.762;7.000;2024-02-26T13:55:35;7.40;98.30
14884;DHT22;7534;50.762;7.000;2024-02-26T13:58:01;7.40;97.90
14884;DHT22;7534;50.762;7.000;2024-02-26T14:00:28;7.40;97.70
14884;DHT22;7534;50.762;7.000;2024-02-26T14:02:57;7.50;97.20
14884;DHT22;7534;50.762;7.000;2024-02-26T14:05:23;7.30;96.90
14884;DHT22;7534;50.762;7.000;2024-02-26T14:07:49;7.20;97.60
14884;DHT22;7534;50.762;7.000;2024-02-26T14:10:15;7.10;98.30
14884;DHT22;7534;50.762;7.000;2024-02-26T14:12:41;7.10;98.80
14884;DHT22;7534;50.762;7.000;2024-02-26T14:15:08;7.00;99.10
14884;DHT22;7534;50.762;7.000;2024-02-26T14:17:36;7.00;99.20
14884;DHT22;7534;50.762;7.000;2024-02-26T14:20:02;7.00;99.40
14884;DHT22;7534;50.762;7.000;2024-02-26T14:22:28;7.00;99.60
14884;DHT22;7534;50.762;7.000;2024-02-26T14:24:56;7.10;99.70
14884;DHT22;7534;50.762;7.000;2024-02-26T14:27:22;7.10;99.80
14884;DHT22;7534;50.762;7.000;2024-02-26T14:29:49;7.20;99.80
14884;DHT22;7534;50.762;7.000;2024-02-26T14:32:15;7.30;99.60
14884;DHT22;7534;50.762;7.000;2024-02-26T14:34:41;7.30;99.10
14884;DHT22;7534;50.762;7.000;2024-02-26T14:37:07;7.20;98.80
14884;DHT22;7534;50.762;7.000;2024-02-26T14:39:33;7.20;98.90
14884;DHT22;7534;50.762;7.000;2024-02-26T14:41:59;7.20;99.00
14884;DHT22;7534;50.762;7.000;2024-02-26T14:44:25;7.30;99.00
14884;DHT22;7534;50.762;7.000;2024-02-26T14:46:51;7.20;98.70
14884;DHT22;7534;50.762;7.000;2024-02-26T14:49:17;7.10;99.00
14884;DHT22;7534;50.762;7.000;2024-02-26T14:51:44;7.20;99.40
14884;DHT22;7534;50.762;7.000;2024-02-26T14:54:14;7.20;98.90
14884;DHT22;7534;50.762;7.000;2024-02-26T14:56:40;7.20;99.00
14884;DHT22;7534;50.762;7.000;2024-02-26T14:59:06;7.20;99.20
14884;DHT22;7534;50.762;7.000;2024-02-26T15:01:32;7.10;98.70
14884;DHT22;7534;50.762;7.000;2024-02-26T15:03:58;7.10;99.10
14884;DHT22;7534;50.762;7.000;2024-02-26T15:06:24;7.10;99.40
14884;DHT22;7534;50.762;7.000;2024-02-26T15:08:51;7.20;99.20
14884;DHT22;7534;50.762;7.000;2024-02-26T15:11:17;7.10;99.00
14884;DHT22;7534;50.762;7.000;2024-02-26T15:13:43;7.10;99.30
14884;DHT22;7534;50.762;7.000;2024-02-26T15:16:08;7.10;99.50
14884;DHT22;7534;50.762;7.000;2024-02-26T15:18:36;7.20;99.50
14884;DHT22;7534;50.762;7.000;2024-02-26T15:21:02;7.30;99.50
14884;DHT22;7534;50.762;7.000;2024-02-26T15:23:28;7.30;99.30
14884;DHT22;7534;50.762;7.000;2024-02-26T15:25:54;7.30;99.20
14884;DHT22;7534;50.762;7.000;2024-02-26T15:28:20;7.30;98.70
14884;DHT22;7534;50.762;7.000;2024-02-26T15:30:46;7.20;98.40
14884;DHT22;7534;50.762;7.000;2024-02-26T15:33:13;7.20;98.30
14884;DHT22;7534;50.762;7.000;2024-02-26T15:35:40;7.10;98.40
14884;DHT22;7534;50.762;7.000;2024-02-26T15:38:07;7.20;98.70
14884;DHT22;7534;50.762;7.000;2024-02-26T15:40:33;7.20;99.00
14884;DHT22;7534;50.762;7.000;2024-02-26T15:42:59;7.20;99.20
14884;DHT22;7534;50.762;7.000;2024-02-26T15:45:24;7.20;99.10
14884;DHT22;7534;50.762;7.000;2024-02-26T15:47:51;7.20;99.00
14884;DHT22;7534;50.762;7.000;2024-02-26T15:50:17;7.20;99.00
14884;DHT22;7534;50.762;7.000;2024-02-26T15:52:42;7.20;99.10
14884;DHT22;7534;50.762;7.000;2024-02-26T15:55:11;7.20;99.10
14884;DHT22;7534;50.762;7.000;2024-02-26T15:57:37;7.20;99.10
14884;DHT22;7534;50.762;7.000;2024-02-26T16:00:04;7.20;99.10
14884;DHT22;7534;50.762;7.000;2024-02-26T16:02:31;7.20;99.10